createdAt,value
2023-03-23T15:59:19.208Z,12.83
2023-03-23T16:02:06.630Z,12.74
2023-03-23T16:04:52.760Z,12.67
2023-03-23T16:07:39.099Z,12.60
2023-03-23T16:10:25.519Z,12.57
2023-03-23T16:13:11.562Z,12.47
2023-03-23T16:15:57.312Z,12.45
2023-03-23T16:18:44.372Z,12.32
2023-03-23T16:21:30.072Z,12.30
2023-03-23T16:24:15.974Z,12.24
2023-03-23T16:27:01.720Z,12.23
2023-03-23T16:30:02.899Z,12.23
2023-03-23T16:32:50.355Z,12.19
2023-03-23T16:35:39.027Z,12.17
2023-03-23T16:38:25.281Z,12.12
2023-03-23T16:41:11.253Z,12.10
2023-03-23T16:43:57.056Z,12.07
2023-03-23T16:46:43.225Z,12.06
2023-03-23T16:49:28.988Z,12.01
2023-03-23T16:52:16.118Z,11.97
2023-03-23T16:55:01.928Z,11.93
2023-03-23T16:57:47.711Z,11.88
2023-03-23T17:00:33.764Z,11.80
2023-03-23T17:03:20.140Z,11.76
2023-03-23T17:06:06.608Z,11.75
2023-03-23T17:08:54.077Z,11.71
2023-03-23T17:11:40.388Z,11.68
2023-03-23T17:14:26.444Z,11.67
2023-03-23T17:17:12.306Z,11.61
2023-03-23T17:19:58.343Z,11.56
2023-03-23T17:22:44.393Z,11.53
2023-03-23T17:25:31.883Z,11.53
2023-03-23T17:28:19.694Z,11.49
2023-03-23T17:31:07.367Z,11.53
2023-03-23T17:33:53.626Z,11.50
2023-03-23T17:36:39.321Z,11.48
2023-03-23T17:39:25.080Z,11.48
2023-03-23T17:42:12.223Z,11.47
2023-03-23T17:44:58.702Z,11.45
2023-03-23T17:47:44.295Z,11.42
2023-03-23T17:50:30.258Z,11.40
2023-03-23T17:53:18.399Z,11.38
2023-03-23T17:56:04.688Z,11.34
2023-03-23T17:58:51.928Z,11.30
2023-03-23T18:01:37.591Z,11.29
2023-03-23T18:04:23.719Z,11.25
2023-03-23T18:07:09.790Z,11.22
2023-03-23T18:09:58.319Z,11.18
2023-03-23T18:12:44.120Z,11.13
2023-03-23T18:15:33.372Z,11.08
2023-03-23T18:18:19.235Z,11.03
2023-03-23T18:21:07.473Z,10.98
2023-03-23T18:23:59.183Z,10.83
2023-03-23T18:26:46.069Z,10.82
2023-03-23T18:29:31.923Z,10.77
2023-03-23T18:32:19.664Z,10.71
2023-03-23T18:35:06.360Z,10.68
2023-03-23T18:37:52.601Z,10.68
2023-03-23T18:40:42.846Z,10.69
2023-03-23T18:43:28.860Z,10.71
2023-03-23T18:46:14.893Z,10.71
2023-03-23T18:49:02.086Z,10.71
2023-03-23T18:51:47.976Z,10.72
2023-03-23T18:54:34.935Z,10.75
2023-03-23T18:57:22.438Z,10.78
2023-03-23T19:00:08.938Z,10.76
2023-03-23T19:02:54.878Z,10.76
2023-03-23T19:05:44.401Z,10.74
2023-03-23T19:08:30.551Z,10.76
2023-03-23T19:11:16.868Z,10.81
2023-03-23T19:14:03.570Z,10.84
2023-03-23T19:16:49.670Z,10.86
2023-03-23T19:19:35.819Z,10.87
2023-03-23T19:22:23.353Z,10.92
2023-03-23T19:25:10.057Z,10.95
2023-03-23T19:30:45.717Z,10.95
2023-03-23T19:33:31.723Z,10.96
2023-03-23T19:36:18.639Z,10.98
2023-03-23T19:39:06.397Z,11.01
2023-03-23T19:41:52.405Z,11.00
2023-03-23T19:44:38.314Z,11.04
2023-03-23T19:47:24.091Z,11.05
2023-03-23T19:50:10.190Z,11.06
2023-03-23T19:52:58.650Z,11.06
2023-03-23T19:55:47.997Z,11.05
2023-03-23T19:58:34.602Z,11.05
2023-03-23T20:01:21.067Z,11.03
2023-03-23T20:04:07.162Z,11.00
2023-03-23T20:06:53.978Z,10.93
2023-03-23T20:09:39.717Z,10.85
2023-03-23T20:12:27.144Z,10.81
2023-03-23T20:15:13.053Z,10.77
2023-03-23T20:17:58.764Z,10.71
2023-03-23T20:20:44.896Z,10.68
2023-03-23T20:23:30.783Z,10.66
2023-03-23T20:26:17.771Z,10.66
2023-03-23T20:29:04.979Z,10.62
2023-03-23T20:31:52.098Z,10.62
2023-03-23T20:34:37.911Z,10.59
2023-03-23T20:37:24.504Z,10.55
2023-03-23T20:40:11.768Z,10.52
2023-03-23T20:42:57.726Z,10.44
2023-03-23T20:45:45.072Z,10.41
2023-03-23T20:48:31.971Z,10.41
2023-03-23T20:51:18.146Z,10.43
2023-03-23T20:54:05.735Z,10.47
2023-03-23T20:56:52.843Z,10.52
2023-03-23T20:59:40.409Z,10.56
2023-03-23T21:02:29.568Z,10.59
2023-03-23T21:05:16.189Z,10.63
2023-03-23T21:08:02.296Z,10.66
2023-03-23T21:10:48.246Z,10.65
2023-03-23T21:13:34.237Z,10.67
2023-03-23T21:16:20.247Z,10.64
2023-03-23T21:19:07.607Z,10.64
2023-03-23T21:21:55.997Z,10.69
2023-03-23T21:24:42.849Z,10.65
2023-03-23T21:27:28.922Z,10.64
2023-03-23T21:30:14.808Z,10.67
2023-03-23T21:33:00.719Z,10.68
2023-03-23T21:35:48.015Z,10.70
2023-03-23T21:38:34.040Z,10.69
2023-03-23T21:41:20.434Z,10.67
2023-03-23T21:44:10.398Z,10.68
2023-03-23T21:46:56.159Z,10.67
2023-03-23T21:49:41.927Z,10.71
2023-03-23T21:52:29.218Z,10.74
2023-03-23T21:55:15.237Z,10.75
2023-03-23T21:58:01.307Z,10.77
2023-03-23T22:00:49.763Z,10.81
2023-03-23T22:03:36.153Z,10.83
2023-03-23T22:06:26.086Z,10.85
2023-03-23T22:09:13.738Z,10.87
2023-03-23T22:11:59.616Z,10.86
2023-03-23T22:14:45.711Z,10.93
2023-03-23T22:17:32.887Z,10.93
2023-03-23T22:20:20.809Z,10.92
2023-03-23T22:23:07.082Z,10.95
2023-03-23T22:25:54.320Z,10.94
2023-03-23T22:28:40.512Z,10.95
2023-03-23T22:31:27.348Z,11.00
2023-03-23T22:34:13.449Z,11.02
2023-03-23T22:36:59.161Z,11.05
2023-03-23T22:39:45.229Z,11.06
2023-03-23T22:42:32.527Z,11.07
2023-03-23T22:45:18.433Z,11.08
2023-03-23T22:48:06.711Z,11.10
2023-03-23T22:50:52.933Z,11.11
2023-03-23T22:53:38.606Z,11.15
2023-03-23T22:56:24.588Z,11.16
2023-03-23T22:59:12.138Z,11.19
2023-03-23T23:01:58.101Z,11.22
2023-03-23T23:04:44.054Z,11.24
2023-03-23T23:07:30.508Z,11.27
2023-03-23T23:10:16.854Z,11.28
2023-03-23T23:13:02.690Z,11.24
2023-03-23T23:15:51.137Z,11.26
2023-03-23T23:18:36.981Z,11.24
2023-03-23T23:21:23.261Z,11.29
2023-03-23T23:24:09.006Z,11.28
2023-03-23T23:26:55.021Z,11.27
2023-03-23T23:29:41.399Z,11.30
2023-03-23T23:32:29.491Z,11.28
2023-03-23T23:35:15.606Z,11.26
2023-03-23T23:38:01.450Z,11.24
2023-03-23T23:40:48.119Z,11.25
2023-03-23T23:43:34.483Z,11.26
2023-03-23T23:46:20.306Z,11.26
2023-03-23T23:49:07.976Z,11.25
2023-03-23T23:51:54.285Z,11.27
2023-03-23T23:54:42.498Z,11.29
2023-03-23T23:57:28.334Z,11.29
